Latest Weather Observations for Maroochydore

IDQ60901

Issued at 11:14 am EST Wednesday 28 January 2015 (issued every 10 minutes, with the page automatically refreshed every 10 minutes)

About weather observations | Map of Brisbane area stations | Latest observations for Brisbane area | Other Formats
Station Details ID: 040861 Name: SUNSHINE COAST AIRPORT Lat: -26.60 Lon: 153.09 Height: 3.3 m
Data from the previous 72 hours. | See also: Recent months at Maroochydore
Date/Time
EST
Tmp

°C
App
Tmp
°C
Dew
Point
°C
Rel
Hum
%
Delta-T

°C
Wind Press
QNH
hPa
Press
MSL
hPa
Rain
since
9 am
mm
Dir
 
Spd
km/h
Gust
km/h
Spd
kts
Gust
kts
28/11:00am 23.5 23.9 20.6 84 1.9 S 19 28 10 15 1006.2 - 0.0
28/10:30am 24.1 24.5 19.8 77 2.8 S 17 26 9 14 1006.3 - 0.0
28/10:00am 24.9 24.9 19.7 73 3.4 S 19 28 10 15 1006.3 - 0.0
28/09:30am 24.7 24.7 19.8 74 3.2 S 19 26 10 14 1005.8 - 0.0
28/09:00am 24.0 24.1 19.9 78 2.7 S 19 28 10 15 1005.9 1005.9 1.4
28/08:30am 23.5 23.3 19.4 78 2.6 S 19 24 10 13 1005.6 - 1.4
28/08:00am 22.4 22.5 19.2 82 2.0 S 17 24 9 13 1005.7 - 1.4
28/07:30am 21.1 20.2 18.3 84 1.7 SSW 20 26 11 14 1005.5 - 1.4
28/07:00am 21.0 20.4 18.8 87 1.4 SSW 20 28 11 15 1005.6 - 1.2
28/06:30am 20.9 20.5 19.0 89 1.2 SSW 19 28 10 15 1005.3 - 1.2
28/06:00am 21.3 20.8 19.2 88 1.3 SSW 20 26 11 14 1004.8 1004.8 1.2
28/05:30am 21.9 22.2 19.6 87 1.5 SSW 17 20 9 11 1004.7 - 1.0
28/05:00am 22.1 21.8 19.6 86 1.6 S 20 30 11 16 1004.6 - 1.0
28/04:30am 22.3 22.8 20.0 87 1.5 S 17 24 9 13 1004.7 - 1.0
28/04:00am 22.4 22.9 20.1 87 1.5 S 17 22 9 12 1004.5 - 1.0
28/03:30am 22.9 23.1 20.2 85 1.7 SSW 19 28 10 15 1004.3 - 1.0
28/03:00am 23.1 22.7 20.1 83 1.9 S 22 35 12 19 1004.4 1004.4 1.0
28/02:50am 23.1 22.5 20.4 85 1.7 SSE 24 33 13 18 1004.4 - 1.0
28/02:40am 22.8 23.1 20.5 87 1.5 S 19 28 10 15 1004.6 - 1.0
28/02:30am 22.7 23.9 20.6 88 1.4 S 15 24 8 13 1004.7 - 1.0
28/02:00am 22.8 23.1 20.5 87 1.5 S 19 28 10 15 1005.2 - 1.0
28/01:30am 23.0 23.4 20.9 88 1.4 S 20 28 11 15 1005.6 - 0.8
28/01:00am 23.6 24.6 21.1 86 1.6 SSE 17 22 9 12 1005.9 - 0.4
28/12:30am 24.0 24.2 20.5 81 2.3 SSE 20 30 11 16 1006.2 - 0.2
28/12:00am 25.1 25.1 20.1 74 3.3 SE 20 32 11 17 1006.0 1006.0 0.0
 
Date/Time
EST
Tmp

°C
App
Tmp
°C
Dew
Point
°C
Rel
Hum
%
Delta-T

°C
Wind Press
QNH
hPa
Press
MSL
hPa
Rain
since
9 am
mm
Dir
 
Spd
km/h
Gust
km/h
Spd
kts
Gust
kts
27/11:30pm 25.5 24.8 19.6 70 3.8 SE 22 30 12 16 1006.2 - 0.0
27/11:00pm 25.6 25.0 19.7 70 3.8 SE 22 30 12 16 1006.4 - 0.0
27/10:30pm 25.7 25.0 19.6 69 3.9 ESE 22 28 12 15 1006.6 - 0.0
27/10:00pm 25.8 24.7 19.4 67 4.1 ESE 24 32 13 17 1006.7 - 0.0
27/09:30pm 25.8 24.8 19.7 69 3.9 SE 24 32 13 17 1006.7 - 0.0
27/09:00pm 26.0 25.6 20.1 70 3.8 ESE 22 32 12 17 1006.7 1006.7 0.0
27/08:30pm 26.1 25.4 20.2 70 3.8 ESE 24 33 13 18 1006.4 - 0.0
27/08:00pm 26.2 25.7 20.7 71 3.6 ESE 24 32 13 17 1006.2 - 0.0
27/07:30pm 26.1 25.8 20.4 71 3.7 ESE 22 30 12 16 1005.8 - 0.0
27/07:00pm 26.3 25.7 20.6 71 3.7 E 24 32 13 17 1005.5 - 0.0
27/06:30pm 26.4 26.3 20.7 71 3.7 E 22 30 12 16 1005.3 - 0.0
27/06:00pm 26.6 26.6 20.2 68 4.2 E 20 32 11 17 1005.2 1005.2 0.0
27/05:30pm 26.8 26.4 20.9 70 3.9 ESE 24 33 13 18 1004.7 - 0.0
27/05:00pm 27.2 26.7 21.5 71 3.8 ESE 26 33 14 18 1004.3 - 0.0
27/04:30pm 27.8 28.0 21.3 67 4.3 ESE 22 30 12 16 1004.5 - 0.0
27/04:00pm 27.6 27.8 21.4 69 4.1 ESE 22 32 12 17 1004.5 - 0.0
27/03:30pm 28.0 27.8 21.3 67 4.5 ESE 24 32 13 17 1004.7 - 0.0
27/03:00pm 28.3 27.7 20.6 63 5.1 ESE 24 33 13 18 1004.8 1004.8 0.0
27/02:30pm 29.8 29.3 21.5 61 5.6 ESE 26 32 14 17 1005.2 - 0.0
27/02:00pm 29.3 29.5 21.3 62 5.3 ESE 22 32 12 17 1005.7 - 0.0
27/01:30pm 28.9 29.1 20.6 61 5.5 ESE 20 30 11 16 1006.2 - 0.0
27/01:00pm 28.6 30.4 21.9 67 4.5 E 15 24 8 13 1006.4 - 0.0
27/12:30pm 28.6 28.9 21.6 66 4.7 ESE 22 28 12 15 1006.5 - 0.0
27/12:00pm 30.5 30.7 21.3 58 6.2 SE 22 30 12 16 1006.9 1006.9 0.0
27/11:30am 30.3 30.2 21.4 59 6.0 SE 24 30 13 16 1007.3 - 0.0
27/11:00am 29.6 30.0 21.0 60 5.7 SE 20 28 11 15 1007.6 - 0.0
27/10:30am 30.3 30.8 21.9 60 5.7 ESE 22 28 12 15 1007.9 - 0.0
27/10:00am 29.8 30.5 21.2 60 5.7 ESE 19 26 10 14 1008.0 - 0.0
27/09:30am 29.8 30.7 22.0 63 5.3 ESE 20 26 11 14 1007.8 - 0.0
27/09:00am 29.5 30.0 21.2 61 5.6 ESE 20 26 11 14 1007.5 1007.5 0.0
27/08:30am 28.9 29.0 21.1 62 5.2 ESE 22 30 12 16 1007.2 - 0.0
27/08:00am 28.6 29.2 21.1 64 5.0 E 19 24 10 13 1007.2 - 0.0
27/07:30am 28.2 28.5 20.7 63 5.0 ESE 20 30 11 16 1007.1 - 0.0
27/07:00am 27.0 27.2 21.3 71 3.8 ESE 22 30 12 16 1007.0 - 0.0
27/06:30am 26.7 26.7 21.7 74 3.3 ESE 24 32 13 17 1007.0 - 0.0
27/06:00am 26.0 27.4 22.5 81 2.4 ESE 19 28 10 15 1006.8 1006.8 0.0
27/05:30am 25.7 26.8 22.0 80 2.5 SE 19 26 10 14 1006.6 - 0.0
27/05:00am 26.0 27.7 21.7 77 2.9 ESE 15 20 8 11 1006.4 - 0.0
27/04:30am 26.1 28.2 21.7 77 2.9 ESE 13 19 7 10 1006.3 - 0.0
27/04:00am 26.1 27.3 21.5 76 3.1 ESE 17 24 9 13 1006.1 - 0.0
27/03:30am 26.1 27.6 22.0 78 2.7 ESE 17 24 9 13 1005.6 - 0.0
27/03:00am 26.3 27.0 21.5 75 3.2 ESE 20 26 11 14 1005.5 1005.5 0.0
27/02:30am 26.1 26.8 21.5 76 3.1 SE 20 28 11 15 1005.7 - 0.0
27/02:00am 26.2 26.6 21.8 77 2.9 ESE 22 28 12 15 1005.7 - 0.0
27/01:30am 26.2 27.0 21.8 77 2.9 SE 20 28 11 15 1005.9 - 0.0
27/01:00am 26.2 27.3 22.3 79 2.6 SE 20 28 11 15 1006.2 - 0.0
27/12:30am 26.4 27.3 22.0 77 2.9 SE 20 26 11 14 1006.7 - 0.0
27/12:00am 26.3 27.6 22.4 79 2.6 SE 19 26 10 14 1007.4 1007.4 0.0
 
Date/Time
EST
Tmp

°C
App
Tmp
°C
Dew
Point
°C
Rel
Hum
%
Delta-T

°C
Wind Press
QNH
hPa
Press
MSL
hPa
Rain
since
9 am
mm
Dir
 
Spd
km/h
Gust
km/h
Spd
kts
Gust
kts
26/11:30pm 26.6 28.1 22.7 79 2.6 SE 19 24 10 13 1007.7 - 0.0
26/11:00pm 26.8 27.7 22.6 78 2.8 ESE 22 32 12 17 1007.7 - 0.0
26/10:56pm 26.7 27.4 22.3 77 3.0 ESE 22 32 12 17 1007.8 - 0.0
26/10:30pm 26.9 28.5 23.2 80 2.5 SE 20 30 11 16 1008.3 - 0.0
26/10:00pm 26.8 27.7 23.3 81 2.4 SSE 24 33 13 18 1008.2 - 0.0
26/09:58pm 26.8 27.8 23.5 82 2.3 SSE 24 33 13 18 1008.2 - 0.0
26/09:30pm 26.8 27.4 23.5 82 2.3 SSE 26 35 14 19 1007.9 - 0.0
26/09:00pm 26.8 26.3 23.5 82 2.3 SSE 32 41 17 22 1007.7 1007.7 0.0
26/08:47pm 26.8 27.3 23.9 84 2.0 SSE 28 39 15 21 1007.7 - 0.0
26/08:30pm 27.1 27.7 24.2 84 2.0 SSE 28 37 15 20 1007.6 - 0.0
26/08:00pm 27.5 30.0 24.7 85 1.9 SE 20 26 11 14 1007.5 - 0.0
26/07:37pm 27.5 30.7 24.9 86 1.8 SE 17 24 9 13 1007.5 - 0.0
26/07:30pm 27.5 30.7 24.9 86 1.8 SE 17 20 9 11 1007.1 - 0.0
26/07:19pm 27.6 30.3 24.8 85 2.0 ESE 19 24 10 13 1006.7 - 0.0
26/07:00pm 27.8 31.5 25.2 86 1.8 ESE 15 20 8 11 1007.1 - 0.0
26/06:57pm 27.7 31.4 25.1 86 1.8 ESE 15 20 8 11 1007.4 - 0.0
26/06:30pm 27.8 30.8 25.2 86 1.8 ESE 19 24 10 13 1006.8 - 0.0
26/06:00pm 27.9 30.8 25.1 85 2.0 ESE 19 22 10 12 1006.6 1006.6 0.0
26/05:30pm 28.0 31.0 25.2 85 2.0 SE 19 24 10 13 1006.2 - 0.0
26/05:00pm 28.1 30.9 25.3 85 2.0 ESE 20 26 11 14 1005.0 - 0.0
26/04:57pm 28.1 31.1 25.3 85 2.0 ESE 19 26 10 14 1005.0 - 0.0
26/04:30pm 28.4 31.4 25.2 83 2.2 SE 19 26 10 14 1005.0 - 0.0
26/04:00pm 28.4 31.5 25.4 84 2.1 SSE 19 26 10 14 1005.2 - 0.0
26/03:30pm 30.2 33.4 25.5 76 3.3 SE 19 24 10 13 1004.7 - 0.0
26/03:00pm 28.9 31.9 25.5 82 2.4 SE 20 26 11 14 1005.2 1005.2 0.0
26/02:30pm 28.3 31.4 25.7 86 1.8 SE 20 26 11 14 1005.2 - 0.0
26/02:00pm 28.9 32.0 25.7 83 2.3 SE 20 26 11 14 1005.2 - 0.0
26/01:30pm 28.8 31.7 25.4 82 2.4 ESE 20 28 11 15 1005.1 - 0.0
26/01:10pm 29.2 32.0 25.2 79 2.8 SE 20 26 11 14 1005.4 - 0.0
26/01:00pm 29.1 31.7 24.9 78 2.9 ESE 20 24 11 13 1005.4 - 0.0
26/12:30pm 30.0 32.6 24.9 74 3.6 ESE 20 26 11 14 1005.9 - 0.0
26/12:00pm 31.4 34.5 25.7 71 4.1 ESE 20 28 11 15 1006.0 1006.0 0.0
26/11:30am 31.0 34.5 26.3 76 3.4 ESE 20 26 11 14 1006.2 - 0.0
26/11:00am 31.2 34.7 25.5 71 4.0 ESE 17 22 9 12 1006.5 - 0.0
26/10:30am 30.4 33.1 24.8 72 3.9 ESE 19 22 10 12 1006.9 - 0.0
26/10:00am 30.7 34.0 25.1 72 3.9 ESE 17 20 9 11 1006.9 - 0.0
26/09:43am 30.2 33.6 24.6 72 3.9 E 15 20 8 11 1006.8 - 0.0
26/09:30am 30.0 33.7 25.1 75 3.4 E 15 20 8 11 1006.9 - 0.0
26/09:00am 29.7 33.2 24.8 75 3.4 ESE 15 19 8 10 1006.8 1006.8 0.0
26/08:30am 28.6 33.0 25.0 81 2.5 S 11 15 6 8 1006.8 - 0.0
26/08:00am 27.1 31.9 25.1 89 1.4 SSW 9 15 5 8 1006.8 - 0.0
26/07:30am 26.7 31.5 25.7 94 0.7 SW 11 13 6 7 1006.8 - 0.0
26/07:13am 26.4 31.4 25.4 94 0.7 SW 9 11 5 6 1006.9 - 0.0
26/07:00am 26.2 31.5 25.3 95 0.6 SW 7 11 4 6 1006.9 - 0.0
26/06:30am 25.9 31.0 25.0 95 0.6 S 7 9 4 5 1006.4 - 0.0
26/06:00am 25.8 30.5 24.9 95 0.6 SSE 9 13 5 7 1005.9 1005.9 0.0
26/05:30am 25.6 29.8 24.7 95 0.6 SSE 11 13 6 7 1005.5 - 0.0
26/05:00am 25.9 30.6 25.0 95 0.6 SSE 9 13 5 7 1005.0 - 0.0
26/04:30am 25.6 30.2 24.7 95 0.6 SSW 9 13 5 7 1004.8 - 0.0
26/04:00am 25.2 29.8 24.2 94 0.7 WNW 7 11 4 6 1004.5 - 0.0
26/03:30am 24.6 30.1 23.4 93 0.8 CALM 0 0 0 0 1004.6 - 0.0
26/03:00am 25.4 30.6 24.2 93 0.8 SW 4 7 2 4 1004.8 1004.8 0.0
26/02:58am 25.3 30.4 24.1 93 0.8 SW 4 7 2 4 1004.8 - 0.0
26/02:39am 25.5 30.5 24.5 94 0.7 SW 6 7 3 4 1004.7 - 0.0
26/02:30am 25.5 30.3 24.5 94 0.7 WSW 7 7 4 4 1004.7 - 0.0
26/02:00am 25.7 31.5 24.5 93 0.8 NNW 2 7 1 4 1004.8 - 0.0
26/01:30am 26.0 31.2 24.8 93 0.8 NW 6 7 3 4 1005.0 - 0.0
26/01:00am 26.2 31.5 25.0 93 0.8 W 6 9 3 5 1005.3 - 0.0
26/12:30am 26.4 30.9 25.2 93 0.8 W 11 13 6 7 1005.8 - 0.0
26/12:00am 26.6 32.0 25.4 93 0.8 NNW 7 13 4 7 1006.1 1006.1 0.0
 
Date/Time
EST
Tmp

°C
App
Tmp
°C
Dew
Point
°C
Rel
Hum
%
Delta-T

°C
Wind Press
QNH
hPa
Press
MSL
hPa
Rain
since
9 am
mm
Dir
 
Spd
km/h
Gust
km/h
Spd
kts
Gust
kts
25/11:30pm 26.6 31.6 25.4 93 0.8 N 9 11 5 6 1006.0 - 0.0
25/11:09pm 26.6 32.1 25.6 94 0.7 N 7 11 4 6 1006.0 - 0.0
25/11:00pm 26.4 31.4 25.4 94 0.7 N 9 11 5 6 1005.9 - 0.0
25/10:57pm 26.3 31.1 25.1 93 0.8 N 9 13 5 7 1005.8 - 0.0
25/10:30pm 26.0 31.0 24.8 93 0.8 N 7 9 4 5 1005.6 - 0.0
25/10:00pm 26.0 30.8 24.4 91 1.1 N 7 11 4 6 1005.8 - 0.0
25/09:30pm 26.7 33.2 25.1 91 1.1 CALM 0 0 0 0 1005.7 - 0.0
25/09:00pm 26.7 32.5 25.1 91 1.1 N 4 7 2 4 1005.6 1005.6 0.0
25/08:30pm 26.7 32.3 24.9 90 1.3 N 4 9 2 5 1005.2 - 0.0
25/08:19pm 26.8 32.1 25.0 90 1.3 N 6 7 3 4 1005.1 - 0.0
25/08:00pm 27.0 32.4 25.2 90 1.3 N 6 11 3 6 1005.1 - 0.0
25/07:30pm 27.4 31.0 25.6 90 1.3 N 17 26 9 14 1005.0 - 0.0
25/07:00pm 27.5 31.4 25.5 89 1.4 N 15 24 8 13 1004.7 - 0.0
25/06:30pm 27.9 30.9 25.5 87 1.7 N 20 28 11 15 1004.2 - 0.0
25/06:00pm 28.4 31.9 25.4 84 2.1 N 17 24 9 13 1003.6 1003.6 0.0
25/05:30pm 28.9 32.1 25.5 82 2.4 NNE 19 24 10 13 1003.2 - 0.0
25/05:00pm 29.5 32.5 25.5 79 2.8 NNE 20 26 11 14 1003.4 - 0.0
25/04:30pm 29.9 33.1 25.0 75 3.4 NE 17 20 9 11 1002.6 - 0.0
25/04:00pm 30.1 33.0 25.4 76 3.3 NNE 20 24 11 13 1003.0 - 0.0
25/03:30pm 30.5 32.8 25.1 73 3.8 NNE 22 30 12 16 1003.2 - 0.0
25/03:00pm 30.6 32.2 25.2 73 3.8 NNE 26 32 14 17 1003.1 1003.1 0.0
25/02:30pm 30.4 31.5 25.0 73 3.8 NNE 28 33 15 18 1003.3 - 0.0
25/02:00pm 30.7 32.0 24.6 70 4.3 NNE 26 32 14 17 1003.5 - 0.0
25/01:30pm 30.9 32.3 24.8 70 4.3 NNE 26 32 14 17 1003.7 - 0.0
25/01:00pm 30.9 32.3 24.8 70 4.3 NNE 26 33 14 18 1003.8 - 0.0
25/12:30pm 30.4 30.8 24.5 70 4.1 NNE 30 37 16 20 1004.1 - 0.0
25/12:00pm 30.9 31.6 24.3 68 4.6 NNE 28 37 15 20 1004.4 1004.4 0.0
25/11:30am 30.8 31.6 24.4 68 4.5 NNE 28 33 15 18 1004.8 - 0.0

Latest Capital City Observations: Canberra | Sydney | Melbourne | Brisbane | Adelaide | Perth | Hobart | Darwin

Other Formats:

Comma delimited format used in spreadsheet applications
http://www.bom.gov.au/fwo/IDQ60901/IDQ60901.94569.axf

JavaScript Object Notation format (JSON) in row-major order
http://www.bom.gov.au/fwo/IDQ60901/IDQ60901.94569.json